createdAt,value
2018-06-02T00:00:37.659Z,165.33
2018-06-02T00:03:05.185Z,167.40
2018-06-02T00:05:32.712Z,195.73
2018-06-02T00:08:00.711Z,177.83
2018-06-02T00:10:28.220Z,176.93
2018-06-02T00:12:55.730Z,179.27
2018-06-02T00:15:23.264Z,177.23
2018-06-02T00:17:50.773Z,183.07
2018-06-02T00:20:18.325Z,161.43
2018-06-02T00:22:45.849Z,160.90
2018-06-02T00:25:13.366Z,144.03
2018-06-02T00:27:40.898Z,147.43
2018-06-02T00:30:08.406Z,151.77
2018-06-02T00:32:35.943Z,142.03
2018-06-02T00:35:03.474Z,152.07
2018-06-02T00:37:30.992Z,143.17
2018-06-02T00:39:59.047Z,133.80
2018-06-02T00:42:26.562Z,151.30
2018-06-02T00:44:54.090Z,166.77
2018-06-02T00:47:21.623Z,164.50
2018-06-02T00:49:49.150Z,151.83
2018-06-02T00:52:16.650Z,149.20
2018-06-02T00:54:56.470Z,166.83
2018-06-02T00:57:23.974Z,154.13
2018-06-02T00:59:51.492Z,164.13
2018-06-02T01:02:19.027Z,169.60
2018-06-02T01:04:46.564Z,152.57
2018-06-02T01:07:14.079Z,156.57
2018-06-02T01:09:41.613Z,168.17
2018-06-02T01:12:09.126Z,182.63
2018-06-02T01:14:36.668Z,172.03
2018-06-02T01:17:04.187Z,175.87
2018-06-02T01:19:31.714Z,172.13
2018-06-02T01:21:59.237Z,169.80
2018-06-02T01:24:26.746Z,193.27
2018-06-02T01:26:55.235Z,175.23
2018-06-02T01:29:22.738Z,188.87
2018-06-02T01:31:50.486Z,181.63
2018-06-02T01:34:17.994Z,180.70
2018-06-02T01:36:45.512Z,151.70
2018-06-02T01:39:13.047Z,142.70
2018-06-02T01:41:40.764Z,167.73
2018-06-02T01:44:08.455Z,164.87
2018-06-02T01:46:35.958Z,165.30
2018-06-02T01:49:03.481Z,150.43
2018-06-02T01:51:31.015Z,166.73
2018-06-02T01:53:58.526Z,154.20
2018-06-02T01:56:26.043Z,174.87
2018-06-02T01:58:53.584Z,169.53
2018-06-02T02:01:21.258Z,162.90
2018-06-02T02:03:48.771Z,173.20
2018-06-02T02:06:16.279Z,196.03
2018-06-02T02:08:44.182Z,211.37
2018-06-02T02:11:12.877Z,270.67
2018-06-02T02:13:40.400Z,189.20
2018-06-02T02:16:07.948Z,204.20
2018-06-02T02:18:35.455Z,178.63
2018-06-02T02:21:03.094Z,192.67
2018-06-02T02:23:30.607Z,196.10
2018-06-02T02:25:58.124Z,178.07
2018-06-02T02:28:25.670Z,192.40
2018-06-02T02:30:53.174Z,187.67
2018-06-02T02:33:20.680Z,201.90
2018-06-02T02:35:48.215Z,191.17
2018-06-02T02:38:15.753Z,197.87
2018-06-02T02:40:43.266Z,169.00
2018-06-02T02:43:10.790Z,178.80
2018-06-02T02:45:38.298Z,176.60
2018-06-02T02:48:05.974Z,190.30
2018-06-02T02:50:33.496Z,164.83
2018-06-02T02:53:01.003Z,148.97
2018-06-02T02:55:28.791Z,155.30
2018-06-02T02:57:56.303Z,167.63
2018-06-02T03:00:23.842Z,187.70
2018-06-02T03:02:51.375Z,170.43
2018-06-02T03:05:18.895Z,169.23
2018-06-02T03:07:46.431Z,169.53
2018-06-02T03:10:13.946Z,177.43
2018-06-02T03:12:41.481Z,191.43
2018-06-02T03:15:08.999Z,178.00
2018-06-02T03:17:36.538Z,193.17
2018-06-02T03:20:04.154Z,161.17
2018-06-02T03:22:31.643Z,173.40
2018-06-02T03:24:59.153Z,160.47
2018-06-02T03:27:27.599Z,177.30
2018-06-02T03:29:55.113Z,158.77
2018-06-02T03:32:22.632Z,142.40
2018-06-02T03:34:50.182Z,147.23
2018-06-02T03:37:17.697Z,160.13
2018-06-02T03:39:45.211Z,153.03
2018-06-02T03:42:12.742Z,148.33
2018-06-02T03:44:40.242Z,138.80
2018-06-02T03:47:07.775Z,152.23
2018-06-02T03:49:35.273Z,163.13
2018-06-02T03:52:02.811Z,152.83
2018-06-02T03:54:30.314Z,148.33
2018-06-02T03:56:57.846Z,166.00
2018-06-02T03:59:25.403Z,158.07
2018-06-02T04:01:52.932Z,133.77
2018-06-02T04:04:20.462Z,160.07
2018-06-02T04:06:48.422Z,133.93
2018-06-02T04:09:15.939Z,147.53
2018-06-02T04:11:43.460Z,160.03
2018-06-02T04:14:10.990Z,167.00
2018-06-02T04:16:38.494Z,168.33
2018-06-02T04:19:06.035Z,173.63
2018-06-02T04:21:33.546Z,184.27
2018-06-02T04:24:01.540Z,179.10
2018-06-02T04:26:29.061Z,176.63
2018-06-02T04:28:56.588Z,187.43
2018-06-02T04:31:24.120Z,190.43
2018-06-02T04:33:51.626Z,212.43
2018-06-02T04:36:19.154Z,222.70
2018-06-02T04:38:46.666Z,226.47
2018-06-02T04:41:14.192Z,214.13
2018-06-02T04:43:41.791Z,234.10
2018-06-02T04:46:09.321Z,266.87
2018-06-02T04:48:36.970Z,241.80
2018-06-02T04:51:04.506Z,267.70
2018-06-02T04:53:32.075Z,270.20
2018-06-02T04:55:59.583Z,257.10
2018-06-02T04:58:27.117Z,267.60
2018-06-02T05:00:54.646Z,213.27
2018-06-02T05:03:22.194Z,250.73
2018-06-02T05:05:49.733Z,277.20
2018-06-02T05:08:17.262Z,285.17
2018-06-02T05:10:44.775Z,239.30
2018-06-02T05:13:12.323Z,321.37
2018-06-02T05:15:39.833Z,254.20
2018-06-02T05:18:07.366Z,253.33
2018-06-02T05:20:34.894Z,221.53
2018-06-02T05:23:02.402Z,262.10
2018-06-02T05:25:30.053Z,296.20
2018-06-02T05:27:57.563Z,271.57
2018-06-02T05:30:25.087Z,276.93
2018-06-02T05:32:52.619Z,322.53
2018-06-02T05:35:20.134Z,279.23
2018-06-02T05:37:48.134Z,348.13
2018-06-02T05:40:15.646Z,290.07
2018-06-02T05:42:43.157Z,264.43
2018-06-02T05:45:10.716Z,284.47
2018-06-02T05:47:38.252Z,368.03
2018-06-02T05:50:05.772Z,286.00
2018-06-02T05:52:33.306Z,306.23
2018-06-02T05:55:00.813Z,305.77
2018-06-02T05:57:28.354Z,290.47
2018-06-02T05:59:55.936Z,341.60
2018-06-02T06:02:23.442Z,295.00
2018-06-02T06:04:50.979Z,295.57
2018-06-02T06:07:18.496Z,266.80
2018-06-02T06:09:46.466Z,269.13
2018-06-02T06:12:13.979Z,287.77
2018-06-02T06:14:41.491Z,260.53
2018-06-02T06:17:09.027Z,282.67
2018-06-02T06:19:36.631Z,243.67
2018-06-02T06:22:04.121Z,263.70
2018-06-02T06:24:31.626Z,237.90
2018-06-02T06:26:59.346Z,250.40
2018-06-02T06:29:26.808Z,206.57
2018-06-02T06:31:54.310Z,214.63
2018-06-02T06:34:22.005Z,213.00
2018-06-02T06:36:49.518Z,241.03
2018-06-02T06:39:17.050Z,238.57
2018-06-02T06:41:44.603Z,235.73
2018-06-02T06:44:12.116Z,218.50
2018-06-02T06:46:39.618Z,234.67
2018-06-02T06:49:07.334Z,235.93
2018-06-02T06:51:34.847Z,224.87
2018-06-02T06:54:02.355Z,236.77
2018-06-02T06:56:29.901Z,248.93
2018-06-02T06:58:57.449Z,224.50
2018-06-02T07:01:24.986Z,235.03
2018-06-02T07:03:52.523Z,244.27
2018-06-02T07:06:20.056Z,243.10
2018-06-02T07:08:47.592Z,182.77
2018-06-02T07:11:15.135Z,238.37
2018-06-02T07:13:42.646Z,214.23
2018-06-02T07:16:10.207Z,217.63
2018-06-02T07:18:37.719Z,249.47
2018-06-02T07:21:05.241Z,196.00
2018-06-02T07:23:32.811Z,236.10
2018-06-02T07:26:00.319Z,224.27
2018-06-02T07:28:27.896Z,210.13
2018-06-02T07:30:55.779Z,210.20
2018-06-02T07:33:24.227Z,212.73
2018-06-02T07:35:51.734Z,218.07
2018-06-02T07:38:19.261Z,187.83
2018-06-02T07:40:46.766Z,174.53
2018-06-02T07:43:14.330Z,170.83
2018-06-02T07:45:41.848Z,175.03
2018-06-02T07:48:09.363Z,153.33
2018-06-02T07:50:36.890Z,173.73
2018-06-02T07:53:04.423Z,164.80
2018-06-02T07:55:31.959Z,155.90
2018-06-02T07:57:59.474Z,183.80
2018-06-02T08:00:27.020Z,170.17
2018-06-02T08:02:54.548Z,155.27
2018-06-02T08:05:22.084Z,148.83
2018-06-02T08:07:49.596Z,139.97
2018-06-02T08:10:17.258Z,132.23
2018-06-02T08:12:44.774Z,116.90
2018-06-02T08:15:12.299Z,115.73
2018-06-02T08:17:39.966Z,120.73
2018-06-02T08:20:07.483Z,103.40
2018-06-02T08:22:34.993Z,75.30
2018-06-02T08:25:02.526Z,81.97
2018-06-02T08:27:30.071Z,69.30
2018-06-02T08:29:57.591Z,70.80
2018-06-02T08:32:25.086Z,58.50
2018-06-02T08:34:52.800Z,55.87
2018-06-02T08:37:20.311Z,47.70
2018-06-02T08:39:47.824Z,50.40
2018-06-02T08:42:15.354Z,45.47
2018-06-02T08:44:42.961Z,37.40
2018-06-02T08:47:10.488Z,42.00
2018-06-02T08:49:37.990Z,37.97
2018-06-02T08:52:05.895Z,34.90
2018-06-02T08:54:33.404Z,37.97
2018-06-02T08:57:00.922Z,39.37
2018-06-02T08:59:28.455Z,42.03
2018-06-02T09:01:55.962Z,34.53
2018-06-02T09:04:23.511Z,35.60
2018-06-02T09:06:51.024Z,38.67
2018-06-02T09:09:18.536Z,39.20
2018-06-02T09:11:46.067Z,44.23
2018-06-02T09:14:13.566Z,46.63
2018-06-02T09:16:41.133Z,50.43
2018-06-02T09:19:08.639Z,54.67
2018-06-02T09:21:36.138Z,57.10
2018-06-02T09:24:03.668Z,64.83
2018-06-02T09:26:31.176Z,60.70
2018-06-02T09:28:58.703Z,73.17
2018-06-02T09:31:26.223Z,76.57
2018-06-02T09:33:53.750Z,82.30
2018-06-02T09:36:21.255Z,86.17
2018-06-02T09:38:48.980Z,93.10
2018-06-02T09:41:16.483Z,98.77
2018-06-02T09:43:43.996Z,112.30
2018-06-02T09:46:11.521Z,111.73
2018-06-02T09:48:39.042Z,115.53
2018-06-02T09:51:06.586Z,125.00
2018-06-02T09:53:34.115Z,128.43
2018-06-02T09:56:01.620Z,130.83
2018-06-02T09:58:29.146Z,127.80
2018-06-02T10:00:56.651Z,137.77
2018-06-02T10:03:24.307Z,122.43
2018-06-02T10:05:51.818Z,120.97
2018-06-02T10:08:19.331Z,117.23
2018-06-02T10:10:46.867Z,111.07
2018-06-02T10:13:14.382Z,115.03
2018-06-02T10:15:42.229Z,106.70
2018-06-02T10:18:09.729Z,119.63
2018-06-02T10:20:37.244Z,109.83
2018-06-02T10:23:04.977Z,107.10
2018-06-02T10:25:32.485Z,108.57
2018-06-02T10:28:00.001Z,103.13
2018-06-02T10:30:27.582Z,108.50
2018-06-02T10:32:55.096Z,108.37
2018-06-02T10:35:22.603Z,115.23
2018-06-02T10:37:50.174Z,103.90
2018-06-02T10:40:17.687Z,99.80
2018-06-02T10:42:45.188Z,96.40
2018-06-02T10:45:13.142Z,110.00
2018-06-02T10:47:40.641Z,98.93
2018-06-02T10:50:08.141Z,100.40
2018-06-02T10:52:35.662Z,82.00
2018-06-02T10:55:03.162Z,83.83
2018-06-02T10:57:31.747Z,78.97
2018-06-02T10:59:59.252Z,88.60
2018-06-02T11:02:26.746Z,80.47
2018-06-02T11:04:54.278Z,75.93
2018-06-02T11:07:21.797Z,89.23
2018-06-02T11:09:49.811Z,74.03
2018-06-02T11:12:17.354Z,80.10
2018-06-02T11:14:44.839Z,66.83
2018-06-02T11:17:12.491Z,64.77
2018-06-02T11:19:39.986Z,63.83
2018-06-02T11:22:07.497Z,79.00
2018-06-02T11:24:35.135Z,64.80
2018-06-02T11:27:02.638Z,67.13
2018-06-02T11:29:30.150Z,66.37
2018-06-02T11:31:57.673Z,60.57
2018-06-02T11:34:25.195Z,56.90
2018-06-02T11:36:53.104Z,65.47
2018-06-02T11:39:20.612Z,56.43
2018-06-02T11:41:48.118Z,59.63
2018-06-02T11:44:15.652Z,55.03
2018-06-02T11:46:43.210Z,58.93
2018-06-02T11:49:10.706Z,55.87
2018-06-02T11:51:38.211Z,62.47
2018-06-02T11:54:05.911Z,65.67
2018-06-02T11:56:33.421Z,62.63
2018-06-02T11:59:00.934Z,61.57
2018-06-02T12:01:28.449Z,58.57
2018-06-02T12:03:56.107Z,58.17
2018-06-02T12:06:23.609Z,63.30
2018-06-02T12:08:51.120Z,48.37
2018-06-02T12:11:18.679Z,54.30
2018-06-02T12:13:46.200Z,58.40
2018-06-02T12:16:13.697Z,51.90
2018-06-02T12:18:41.223Z,58.87
2018-06-02T12:21:08.733Z,58.13
2018-06-02T12:23:36.312Z,61.30
2018-06-02T12:26:03.806Z,60.70
2018-06-02T12:28:31.305Z,70.63
2018-06-02T12:30:59.007Z,72.73
2018-06-02T12:33:26.515Z,77.17
2018-06-02T12:35:54.018Z,71.77
2018-06-02T12:38:21.926Z,78.07
2018-06-02T12:40:49.431Z,67.70
2018-06-02T12:43:16.941Z,84.60
2018-06-02T12:45:44.621Z,67.30
2018-06-02T12:48:12.131Z,73.80
2018-06-02T12:50:39.662Z,85.07
2018-06-02T12:53:07.177Z,71.83
2018-06-02T12:55:34.693Z,76.27
2018-06-02T12:58:02.185Z,79.97
2018-06-02T13:00:29.711Z,72.93
2018-06-02T13:02:57.247Z,65.00
2018-06-02T13:05:24.842Z,70.57
2018-06-02T13:07:52.384Z,73.80
2018-06-02T13:10:19.903Z,66.53
2018-06-02T13:12:47.537Z,73.63
2018-06-02T13:15:15.033Z,64.50
2018-06-02T13:17:42.547Z,71.73
2018-06-02T13:20:10.261Z,63.83
2018-06-02T13:22:37.774Z,67.40
2018-06-02T13:25:05.270Z,68.73
2018-06-02T13:27:32.834Z,61.97
2018-06-02T13:30:00.335Z,62.93
2018-06-02T13:32:27.831Z,67.03
2018-06-02T13:34:55.354Z,63.57
2018-06-02T13:37:22.854Z,66.43
2018-06-02T13:39:50.374Z,66.10
2018-06-02T13:42:18.066Z,65.97
2018-06-02T13:44:45.566Z,62.40
2018-06-02T13:47:13.067Z,62.83
2018-06-02T13:49:40.595Z,63.60
2018-06-02T13:52:08.113Z,62.70
2018-06-02T13:54:35.614Z,64.33
2018-06-02T13:57:03.132Z,66.43
2018-06-02T13:59:30.626Z,57.83
2018-06-02T14:01:58.137Z,63.07
2018-06-02T14:04:25.624Z,60.27
2018-06-02T14:06:53.170Z,61.40
2018-06-02T14:09:20.677Z,62.27
2018-06-02T14:11:48.184Z,51.63
2018-06-02T14:14:15.719Z,55.20
2018-06-02T14:16:43.228Z,49.30
2018-06-02T14:19:10.741Z,47.90
2018-06-02T14:21:38.276Z,41.37
2018-06-02T14:24:05.775Z,35.97
2018-06-02T14:26:33.293Z,35.20
2018-06-02T14:29:00.848Z,43.07
2018-06-02T14:31:28.349Z,46.50
2018-06-02T14:33:55.846Z,41.23
2018-06-02T14:36:23.384Z,42.57
2018-06-02T14:38:50.885Z,44.73
2018-06-02T14:41:18.541Z,35.70
2018-06-02T14:43:46.042Z,48.50
2018-06-02T14:46:13.546Z,39.03
2018-06-02T14:48:41.061Z,47.03
2018-06-02T14:51:08.852Z,46.07
2018-06-02T14:53:36.359Z,41.60
2018-06-02T14:56:03.862Z,44.90
2018-06-02T14:58:31.458Z,56.10
2018-06-02T15:00:58.963Z,60.00
2018-06-02T15:03:26.490Z,47.10
2018-06-02T15:05:53.982Z,50.27
2018-06-02T15:08:21.496Z,53.87
2018-06-02T15:10:49.030Z,50.67
2018-06-02T15:13:16.558Z,50.97
2018-06-02T15:15:44.063Z,49.47
2018-06-02T15:18:11.730Z,51.33
2018-06-02T15:20:39.225Z,51.07
2018-06-02T15:23:06.718Z,60.27
2018-06-02T15:25:34.229Z,61.63
2018-06-02T15:28:02.230Z,62.23
2018-06-02T15:30:29.730Z,62.67
2018-06-02T15:32:57.225Z,63.47
2018-06-02T15:35:25.274Z,65.53
2018-06-02T15:37:52.785Z,70.17
2018-06-02T15:40:20.285Z,71.17
2018-06-02T15:42:47.805Z,80.40
2018-06-02T15:45:15.326Z,75.10
2018-06-02T15:47:43.023Z,83.10
2018-06-02T15:50:10.679Z,85.40
2018-06-02T15:52:38.182Z,80.50
2018-06-02T15:55:05.734Z,85.10
2018-06-02T15:57:33.250Z,78.77
2018-06-02T16:00:00.749Z,78.23
2018-06-02T16:02:28.271Z,74.13
2018-06-02T16:04:55.786Z,66.60
2018-06-02T16:07:23.314Z,65.23
2018-06-02T16:09:50.839Z,66.37
2018-06-02T16:12:18.342Z,63.73
2018-06-02T16:14:45.865Z,72.67
2018-06-02T16:17:13.597Z,69.50
2018-06-02T16:19:41.108Z,72.70
2018-06-02T16:22:08.612Z,68.70
2018-06-02T16:24:36.135Z,69.30
2018-06-02T16:27:03.649Z,66.10
2018-06-02T16:29:31.147Z,72.63
2018-06-02T16:31:58.669Z,67.90
2018-06-02T16:34:26.170Z,64.90
2018-06-02T16:36:53.697Z,61.67
2018-06-02T16:39:21.194Z,56.93
2018-06-02T16:41:48.685Z,64.90
2018-06-02T16:44:16.206Z,59.90
2018-06-02T16:46:43.715Z,58.70
2018-06-02T16:49:11.347Z,58.47
2018-06-02T16:51:38.837Z,58.10
2018-06-02T16:54:06.334Z,56.57
2018-06-02T16:56:33.849Z,55.93
2018-06-02T16:59:01.359Z,53.57
2018-06-02T17:01:28.877Z,59.40
2018-06-02T17:03:56.382Z,55.37
2018-06-02T17:06:24.351Z,53.63
2018-06-02T17:08:51.857Z,54.40
2018-06-02T17:11:19.354Z,55.13
2018-06-02T17:13:46.874Z,69.17
2018-06-02T17:16:14.385Z,53.03
2018-06-02T17:18:41.906Z,53.23
2018-06-02T17:21:09.411Z,63.27
2018-06-02T17:23:36.941Z,59.40
2018-06-02T17:26:04.441Z,44.43
2018-06-02T17:28:32.097Z,53.63
2018-06-02T17:30:59.598Z,46.27
2018-06-02T17:33:27.100Z,44.47
2018-06-02T17:35:54.630Z,46.37
2018-06-02T17:38:22.126Z,47.97
2018-06-02T17:40:50.190Z,43.93
2018-06-02T17:43:17.761Z,49.00
2018-06-02T17:45:45.270Z,49.80
2018-06-02T17:48:12.787Z,53.53
2018-06-02T17:50:40.290Z,49.20
2018-06-02T17:53:07.940Z,46.07
2018-06-02T17:55:35.438Z,52.83
2018-06-02T17:58:03.000Z,55.40
2018-06-02T18:00:30.498Z,50.60
2018-06-02T18:02:58.003Z,54.30
2018-06-02T18:05:25.571Z,43.47
2018-06-02T18:07:53.077Z,50.27
2018-06-02T18:10:20.587Z,49.93
2018-06-02T18:12:48.142Z,54.97
2018-06-02T18:15:15.637Z,53.53
2018-06-02T18:17:43.142Z,52.40
2018-06-02T18:20:11.031Z,55.50
2018-06-02T18:22:38.533Z,54.10
2018-06-02T18:25:06.039Z,57.33
2018-06-02T18:27:33.563Z,53.40
2018-06-02T18:30:01.102Z,55.40
2018-06-02T18:32:28.607Z,60.20
2018-06-02T18:34:56.474Z,57.83
2018-06-02T18:37:23.978Z,57.10
2018-06-02T18:39:51.482Z,50.00
2018-06-02T18:42:19.126Z,51.27
2018-06-02T18:44:46.654Z,66.23
2018-06-02T18:47:14.166Z,58.00
2018-06-02T18:49:41.813Z,47.90
2018-06-02T18:52:09.317Z,60.40
2018-06-02T18:54:36.809Z,54.90
2018-06-02T18:57:04.326Z,52.07
2018-06-02T18:59:32.253Z,58.03
2018-06-02T19:01:59.754Z,58.10
2018-06-02T19:04:27.254Z,59.97
2018-06-02T19:06:54.802Z,56.13
2018-06-02T19:09:22.315Z,61.63
2018-06-02T19:11:49.826Z,60.43
2018-06-02T19:14:17.853Z,59.53
2018-06-02T19:16:45.354Z,70.27
2018-06-02T19:19:12.862Z,65.23
2018-06-02T19:21:40.380Z,60.40
2018-06-02T19:24:07.902Z,58.03
2018-06-02T19:26:35.466Z,61.50
2018-06-02T19:29:02.966Z,62.13
2018-06-02T19:31:30.470Z,61.97
2018-06-02T19:33:58.010Z,54.53
2018-06-02T19:36:25.522Z,62.93
2018-06-02T19:38:53.033Z,65.60
2018-06-02T19:41:20.559Z,65.50
2018-06-02T19:43:48.063Z,65.10
2018-06-02T19:46:15.591Z,58.63
2018-06-02T19:48:43.094Z,63.00
2018-06-02T19:51:10.615Z,71.20
2018-06-02T19:53:38.320Z,69.00
2018-06-02T19:56:05.830Z,60.30
2018-06-02T19:58:33.398Z,62.80
2018-06-02T20:01:00.900Z,66.20
2018-06-02T20:03:28.402Z,72.27
2018-06-02T20:05:55.961Z,68.00
2018-06-02T20:08:23.458Z,68.30
2018-06-02T20:10:50.978Z,64.80
2018-06-02T20:13:18.899Z,72.17
2018-06-02T20:16:19.577Z,69.03
2018-06-02T20:18:48.078Z,78.40
2018-06-02T20:21:16.577Z,66.33
2018-06-02T20:23:45.066Z,71.90
2018-06-02T20:26:13.567Z,77.30
2018-06-02T20:28:42.077Z,78.87
2018-06-02T20:31:11.025Z,70.80
2018-06-02T20:33:39.548Z,65.20
2018-06-02T20:36:08.062Z,58.60
2018-06-02T20:38:36.614Z,65.20
2018-06-02T20:41:05.110Z,69.23
2018-06-02T20:43:33.675Z,56.23
2018-06-02T20:46:02.405Z,64.13
2018-06-02T20:48:30.913Z,71.90
2018-06-02T20:50:59.397Z,67.37
2018-06-02T20:53:28.342Z,69.73
2018-06-02T20:55:57.134Z,63.57
2018-06-02T20:58:25.670Z,68.47
2018-06-02T21:00:54.162Z,71.03
2018-06-02T21:03:22.771Z,67.47
2018-06-02T21:05:51.269Z,75.73
2018-06-02T21:08:19.761Z,69.23
2018-06-02T21:10:48.265Z,69.27
2018-06-02T21:13:16.744Z,65.10
2018-06-02T21:15:45.490Z,62.87
2018-06-02T21:18:13.949Z,63.90
2018-06-02T21:20:42.444Z,72.23
2018-06-02T21:23:11.171Z,70.37
2018-06-02T21:25:39.667Z,67.30
2018-06-02T21:28:08.287Z,64.93
2018-06-02T21:30:36.898Z,66.57
2018-06-02T21:33:05.420Z,78.90
2018-06-02T21:35:34.022Z,68.27
2018-06-02T21:38:02.533Z,87.73
2018-06-02T21:40:31.246Z,84.30
2018-06-02T21:42:59.735Z,80.70
2018-06-02T21:45:28.241Z,70.17
2018-06-02T21:47:57.139Z,69.20
2018-06-02T21:50:25.710Z,78.13
2018-06-02T21:52:54.194Z,76.87
2018-06-02T21:55:23.055Z,82.50
2018-06-02T21:57:51.534Z,76.93
2018-06-02T22:00:20.065Z,76.73
2018-06-02T22:02:48.549Z,82.10
2018-06-02T22:05:17.027Z,92.23
2018-06-02T22:07:45.582Z,94.67
2018-06-02T22:10:14.075Z,86.67
2018-06-02T22:12:43.114Z,72.97
2018-06-02T22:15:12.006Z,68.73
2018-06-02T22:17:40.480Z,90.17
2018-06-02T22:20:08.977Z,75.87
2018-06-02T22:22:37.497Z,82.23
2018-06-02T22:25:05.998Z,70.87
2018-06-02T22:27:34.460Z,75.80
2018-06-02T22:30:02.993Z,79.87
2018-06-02T22:32:31.510Z,75.60
2018-06-02T22:35:00.030Z,74.13
2018-06-02T22:37:28.677Z,70.53
2018-06-02T22:39:57.170Z,85.27
2018-06-02T22:42:25.674Z,99.70
2018-06-02T22:44:54.166Z,89.83
2018-06-02T22:47:22.688Z,91.70
2018-06-02T22:49:51.283Z,86.20
2018-06-02T22:52:19.787Z,94.37
2018-06-02T22:54:48.404Z,94.27
2018-06-02T22:57:17.061Z,78.67
2018-06-02T22:59:45.627Z,104.67
2018-06-02T23:02:14.551Z,102.27
2018-06-02T23:04:43.349Z,117.23
2018-06-02T23:07:12.045Z,109.93
2018-06-02T23:09:40.552Z,119.50
2018-06-02T23:12:09.026Z,102.13
2018-06-02T23:14:37.521Z,118.27
2018-06-02T23:17:06.078Z,111.87
2018-06-02T23:19:34.646Z,104.90
2018-06-02T23:22:03.317Z,98.80
2018-06-02T23:24:31.812Z,93.00
2018-06-02T23:27:00.304Z,96.23
2018-06-02T23:29:28.832Z,91.03
2018-06-02T23:31:57.367Z,100.33
2018-06-02T23:34:25.857Z,111.43
2018-06-02T23:36:54.338Z,91.33
2018-06-02T23:39:22.851Z,106.37
2018-06-02T23:41:51.339Z,98.00
2018-06-02T23:44:19.820Z,107.33
2018-06-02T23:46:48.304Z,111.23
2018-06-02T23:49:16.783Z,103.20
2018-06-02T23:51:45.269Z,127.37
2018-06-02T23:54:13.827Z,115.77
2018-06-02T23:56:42.338Z,117.97
2018-06-02T23:59:10.906Z,114.63
